Time;durP1;ratioP1;P1;durP2;ratioP2;P2;SDS_P1;SDS_P2;PMS_P1;PMS_P2;Temp;Humidity;BMP_temperature;BMP_pressure;BME280_temperature;BME280_humidity;BME280_pressure;Samples;Min_cycle;Max_cycle;Signal;HPM_P1;HPM_P2
2022/10/11 00:00:56;;;;;;;10.80;4.20;;;16.70;66.80;;;;;;5028354;28;20231;-81
2022/10/11 00:03:25;;;;;;;8.23;3.83;;;16.60;66.90;;;;;;5027427;28;20318;-81
2022/10/11 00:05:53;;;;;;;11.23;4.07;;;16.60;67.20;;;;;;5036602;28;20261;-81
2022/10/11 00:08:22;;;;;;;13.70;3.77;;;16.60;67.10;;;;;;5024402;28;20220;-82
2022/10/11 00:11:01;;;;;;;8.93;3.90;;;16.50;67.20;;;;;;5032598;28;20222;-82
2022/10/11 00:13:31;;;;;;;10.63;3.87;;;16.50;67.40;;;;;;5025113;28;20219;-81
2022/10/11 00:15:59;;;;;;;8.37;3.97;;;16.50;67.60;;;;;;5035685;28;20591;-80
2022/10/11 00:18:27;;;;;;;10.43;4.30;;;16.50;67.50;;;;;;5029372;28;20192;-80
2022/10/11 00:21:08;;;;;;;11.33;4.20;;;16.40;67.60;;;;;;5029031;28;20245;-81
2022/10/11 00:23:37;;;;;;;13.97;5.23;;;16.40;67.70;;;;;;5023877;28;20256;-79
2022/10/11 00:26:08;;;;;;;12.57;4.50;;;16.40;67.80;;;;;;5035741;28;20264;-82
2022/10/11 00:28:38;;;;;;;11.40;4.57;;;16.40;67.90;;;;;;5034225;28;20337;-81
2022/10/11 00:31:08;;;;;;;11.93;4.23;;;16.30;68.10;;;;;;5027617;28;20565;-80
2022/10/11 00:33:36;;;;;;;12.63;4.53;;;16.30;68.30;;;;;;5029737;28;20192;-81
2022/10/11 00:36:05;;;;;;;15.70;4.50;;;16.30;68.50;;;;;;5024874;28;20242;-81
2022/10/11 00:38:35;;;;;;;11.07;4.20;;;16.30;68.70;;;;;;5029862;28;20245;-81
2022/10/11 00:41:03;;;;;;;12.27;4.37;;;16.20;69.00;;;;;;5029617;28;20278;-79
2022/10/11 00:43:33;;;;;;;11.00;4.80;;;16.20;69.20;;;;;;5031122;28;20250;-81
2022/10/11 00:46:33;;;;;;;9.60;4.63;;;16.20;69.40;;;;;;5035518;28;20192;-80
2022/10/11 00:49:05;;;;;;;12.37;4.70;;;16.10;69.50;;;;;;4951661;28;20206;-82
2022/10/11 00:51:40;;;;;;;11.07;4.90;;;16.10;69.50;;;;;;5008574;28;20192;-81
2022/10/11 00:54:12;;;;;;;9.10;4.20;;;16.00;69.60;;;;;;5033026;28;21576;-81
2022/10/11 00:56:43;;;;;;;9.47;4.40;;;16.00;69.80;;;;;;5031081;28;20275;-82
2022/10/11 00:59:19;;;;;;;8.10;4.27;;;16.00;69.60;;;;;;5027830;28;20647;-81
2022/10/11 01:01:49;;;;;;;8.93;4.17;;;15.90;69.70;;;;;;5032458;28;20301;-81
2022/10/11 01:04:18;;;;;;;10.13;4.03;;;15.90;69.70;;;;;;5035303;28;20192;-81
2022/10/11 01:06:48;;;;;;;8.27;4.03;;;15.80;69.50;;;;;;5026678;28;20235;-82
2022/10/11 01:09:18;;;;;;;8.80;4.23;;;15.80;69.70;;;;;;5036711;28;20207;-82
2022/10/11 01:11:48;;;;;;;12.40;4.40;;;15.70;69.70;;;;;;5027274;28;20196;-80
2022/10/11 01:14:35;;;;;;;9.40;3.90;;;15.70;69.70;;;;;;5022875;28;20192;-80
2022/10/11 01:17:16;;;;;;;9.23;4.13;;;15.70;69.70;;;;;;5030676;28;20226;-79
2022/10/11 01:20:01;;;;;;;8.03;3.90;;;15.70;69.70;;;;;;5034046;28;20184;-82
2022/10/11 01:23:08;;;;;;;9.03;3.97;;;15.60;69.50;;;;;;5029650;28;20676;-82
2022/10/11 01:25:45;;;;;;;8.13;4.23;;;15.60;69.50;;;;;;5031641;28;20283;-81
2022/10/11 01:28:26;;;;;;;13.70;3.90;;;15.60;69.40;;;;;;5025931;28;20297;-80
2022/10/11 01:31:01;;;;;;;9.33;3.43;;;15.60;69.40;;;;;;5032038;28;20598;-81
2022/10/11 01:33:37;;;;;;;7.20;3.33;;;15.60;69.30;;;;;;5032232;28;20242;-81
2022/10/11 01:36:12;;;;;;;8.50;3.73;;;15.60;69.20;;;;;;5034821;28;20783;-81
2022/10/11 01:38:46;;;;;;;8.13;3.40;;;15.50;69.20;;;;;;5027853;28;20646;-79
2022/10/11 01:41:19;;;;;;;8.40;3.10;;;15.50;69.10;;;;;;5034879;28;20251;-79
2022/10/11 01:43:49;;;;;;;9.17;3.87;;;15.50;69.10;;;;;;5028659;28;20272;-80
2022/10/11 01:46:20;;;;;;;8.97;3.47;;;15.50;69.20;;;;;;5035079;28;20192;-80
2022/10/11 01:48:50;;;;;;;10.10;4.00;;;15.50;69.20;;;;;;5031097;28;20266;-79
2022/10/11 01:51:22;;;;;;;18.17;3.60;;;15.50;69.10;;;;;;5028146;28;20662;-80
2022/10/11 01:54:04;;;;;;;10.63;3.95;;;15.50;69.00;;;;;;5028825;28;20470;-78
2022/10/11 01:56:56;;;;;;;10.10;3.77;;;15.40;69.40;;;;;;5026501;28;20199;-79
2022/10/11 01:59:40;;;;;;;6.57;3.23;;;15.40;69.20;;;;;;5021307;28;20246;-80
2022/10/11 02:02:21;;;;;;;9.63;3.43;;;15.40;68.90;;;;;;5037103;28;20278;-79
2022/10/11 02:04:55;;;;;;;8.10;3.63;;;15.40;68.90;;;;;;5031542;28;20219;-80
2022/10/11 02:07:31;;;;;;;8.33;3.30;;;15.40;68.90;;;;;;5027713;28;20286;-81
2022/10/11 02:10:05;;;;;;;6.83;3.20;;;15.40;68.90;;;;;;5038044;28;20211;-80
2022/10/11 02:12:38;;;;;;;12.17;3.57;;;15.30;68.90;;;;;;5029489;28;20227;-80
2022/10/11 02:15:09;;;;;;;12.07;3.47;;;15.30;68.90;;;;;;5037258;28;20648;-80
2022/10/11 02:17:44;;;;;;;6.37;3.70;;;15.30;68.80;;;;;;5033158;28;20610;-81
2022/10/11 02:20:18;;;;;;;9.17;3.90;;;15.30;68.80;;;;;;5029233;28;20241;-82
2022/10/11 02:22:49;;;;;;;11.40;3.60;;;15.20;68.80;;;;;;5028269;28;20230;-81
2022/10/11 02:25:21;;;;;;;5.73;2.90;;;15.20;69.00;;;;;;5030410;28;20291;-81
2022/10/11 02:27:51;;;;;;;10.77;3.47;;;15.20;69.10;;;;;;5031150;28;20649;-81
2022/10/11 02:30:20;;;;;;;11.13;3.60;;;15.10;69.00;;;;;;5030406;28;20710;-79
2022/10/11 02:32:51;;;;;;;16.73;3.23;;;15.10;69.10;;;;;;5028263;28;20573;-79
2022/10/11 02:35:23;;;;;;;8.57;3.40;;;15.00;69.10;;;;;;5024865;28;20641;-83
2022/10/11 02:37:55;;;;;;;8.73;3.60;;;15.00;69.10;;;;;;5027935;28;20652;-81
2022/10/11 02:40:27;;;;;;;8.80;3.43;;;15.00;69.10;;;;;;5039151;28;20277;-81
2022/10/11 02:43:02;;;;;;;8.63;3.50;;;15.00;69.10;;;;;;5033761;28;20227;-81
2022/10/11 02:45:38;;;;;;;9.03;3.70;;;15.00;69.10;;;;;;5032957;28;20282;-81
2022/10/11 02:48:11;;;;;;;8.60;3.50;;;14.90;69.10;;;;;;5038866;28;20223;-81
2022/10/11 02:50:40;;;;;;;7.93;3.77;;;14.90;69.20;;;;;;5036422;28;20246;-83
2022/10/11 02:53:09;;;;;;;7.43;3.20;;;14.90;69.30;;;;;;5028984;28;20227;-82
2022/10/11 02:55:37;;;;;;;7.90;3.67;;;14.90;69.30;;;;;;5024008;28;20618;-81
2022/10/11 02:58:05;;;;;;;13.30;3.73;;;14.90;69.30;;;;;;5028286;28;20270;-82
2022/10/11 03:00:34;;;;;;;11.90;3.70;;;14.80;69.20;;;;;;5024171;28;20224;-81
2022/10/11 03:03:02;;;;;;;9.20;3.90;;;14.80;69.20;;;;;;5028969;28;20238;-80
2022/10/11 03:05:39;;;;;;;7.47;3.47;;;14.80;69.30;;;;;;5030180;28;20201;-79
2022/10/11 03:08:08;;;;;;;7.17;3.13;;;14.80;69.20;;;;;;5034068;28;21780;-81
2022/10/11 03:10:37;;;;;;;7.27;3.50;;;14.70;69.20;;;;;;5027384;28;20216;-81
2022/10/11 03:13:06;;;;;;;7.33;3.43;;;14.70;69.20;;;;;;5028630;28;20199;-80
2022/10/11 03:15:34;;;;;;;11.27;3.40;;;14.70;69.30;;;;;;5036980;28;20574;-81
2022/10/11 03:18:03;;;;;;;7.23;3.10;;;14.70;69.40;;;;;;5028201;28;20200;-81
2022/10/11 03:20:33;;;;;;;8.70;3.23;;;14.60;69.40;;;;;;5033598;28;20288;-81
2022/10/11 03:23:01;;;;;;;10.10;3.63;;;14.60;69.40;;;;;;5030569;28;20216;-79
2022/10/11 03:25:29;;;;;;;5.80;3.07;;;14.70;69.40;;;;;;5026354;28;20714;-82
2022/10/11 03:27:58;;;;;;;7.77;3.07;;;14.60;69.40;;;;;;5025604;28;20228;-83
2022/10/11 03:30:26;;;;;;;9.63;3.13;;;14.60;69.50;;;;;;5029695;28;20245;-81
2022/10/11 03:32:54;;;;;;;9.80;2.97;;;14.60;69.40;;;;;;5025424;28;20200;-80
2022/10/11 03:35:23;;;;;;;6.67;2.97;;;14.60;69.40;;;;;;5026167;28;20613;-81
2022/10/11 03:37:53;;;;;;;11.03;3.67;;;14.60;69.40;;;;;;5023508;28;20187;-79
2022/10/11 03:40:21;;;;;;;9.57;3.57;;;14.50;69.50;;;;;;5028335;28;20199;-80
2022/10/11 03:42:49;;;;;;;6.90;3.00;;;14.40;69.40;;;;;;5032739;28;20242;-81
2022/10/11 03:45:18;;;;;;;6.30;2.93;;;14.40;69.50;;;;;;5026063;28;20277;-83
2022/10/11 03:47:46;;;;;;;6.97;3.00;;;14.40;69.60;;;;;;5026381;28;20246;-79
2022/10/11 03:50:14;;;;;;;8.13;3.87;;;14.40;69.60;;;;;;5042665;28;20274;-81
2022/10/11 03:52:42;;;;;;;6.30;2.87;;;14.30;69.50;;;;;;5031399;28;20560;-81
2022/10/11 03:55:12;;;;;;;6.47;2.70;;;14.30;69.80;;;;;;5029642;28;20365;-81
2022/10/11 03:57:40;;;;;;;8.83;3.33;;;14.30;69.90;;;;;;5026532;28;20608;-81
2022/10/11 04:00:10;;;;;;;13.53;4.50;;;14.30;69.90;;;;;;5027723;28;20253;-80
2022/10/11 04:02:38;;;;;;;10.80;5.27;;;14.30;70.00;;;;;;5029876;28;20241;-82
2022/10/11 04:05:07;;;;;;;11.83;4.83;;;14.20;70.00;;;;;;5030430;28;20743;-80
2022/10/11 04:07:35;;;;;;;8.60;5.10;;;14.20;70.00;;;;;;5026608;28;20219;-79
2022/10/11 04:10:04;;;;;;;9.80;3.47;;;14.20;70.20;;;;;;5028099;28;20273;-80
2022/10/11 04:12:34;;;;;;;12.07;3.33;;;14.20;70.20;;;;;;5026751;28;20276;-80
2022/10/11 04:15:02;;;;;;;7.93;3.40;;;14.20;70.50;;;;;;5026628;28;20227;-77
2022/10/11 04:17:30;;;;;;;5.87;3.27;;;14.20;70.30;;;;;;5026219;28;20195;-80
2022/10/11 04:20:00;;;;;;;7.93;2.93;;;14.20;70.30;;;;;;5031514;28;20560;-79
2022/10/11 04:22:28;;;;;;;13.40;3.27;;;14.20;70.40;;;;;;5026873;28;20742;-80
2022/10/11 04:24:56;;;;;;;19.60;3.13;;;14.30;70.70;;;;;;5030707;28;20200;-78
2022/10/11 04:27:27;;;;;;;16.27;3.10;;;14.30;70.60;;;;;;5025500;28;20223;-77
2022/10/11 04:29:57;;;;;;;9.45;3.10;;;14.30;70.80;;;;;;5028592;28;20489;-77
2022/10/11 04:32:25;;;;;;;7.50;2.63;;;14.30;70.90;;;;;;5024602;28;20227;-79
2022/10/11 04:34:53;;;;;;;7.47;2.70;;;14.30;70.70;;;;;;5031484;28;20227;-79
2022/10/11 04:37:22;;;;;;;13.00;2.97;;;14.30;70.50;;;;;;5026533;28;20223;-80
2022/10/11 04:39:50;;;;;;;10.80;3.93;;;14.30;70.60;;;;;;5025076;28;20228;-80
2022/10/11 04:42:19;;;;;;;9.80;2.87;;;14.30;70.80;;;;;;5019109;28;20652;-79
2022/10/11 04:44:47;;;;;;;9.03;2.67;;;14.40;70.80;;;;;;5019438;28;20226;-81
2022/10/11 04:47:17;;;;;;;7.23;2.70;;;14.30;71.40;;;;;;5022222;28;20189;-79
2022/10/11 04:49:45;;;;;;;7.33;3.47;;;14.40;70.60;;;;;;5034155;28;20306;-81
2022/10/11 04:52:13;;;;;;;6.27;2.90;;;14.40;70.60;;;;;;5035658;28;20256;-81
2022/10/11 04:54:41;;;;;;;8.23;3.17;;;14.50;70.80;;;;;;5035302;28;20219;-80
2022/10/11 04:57:10;;;;;;;7.37;3.07;;;14.50;70.90;;;;;;5031159;28;20723;-81
2022/10/11 04:59:38;;;;;;;7.80;2.80;;;14.50;70.90;;;;;;5035031;28;20226;-79
2022/10/11 05:02:06;;;;;;;9.53;3.10;;;14.50;71.10;;;;;;5030601;28;20284;-79
2022/10/11 05:04:36;;;;;;;10.10;3.13;;;14.50;71.20;;;;;;5041063;28;20214;-81
2022/10/11 05:07:05;;;;;;;10.73;4.17;;;14.60;71.20;;;;;;5026593;28;20200;-80
2022/10/11 05:09:33;;;;;;;7.28;3.50;;;14.60;71.40;;;;;;5035464;28;20451;-80
2022/10/11 05:12:01;;;;;;;8.93;3.73;;;14.60;71.90;;;;;;5034905;28;20235;-80
2022/10/11 05:14:30;;;;;;;8.27;3.37;;;14.70;71.80;;;;;;5036884;28;20628;-78
2022/10/11 05:16:58;;;;;;;8.20;3.70;;;14.70;71.80;;;;;;5035526;28;20200;-80
2022/10/11 05:19:26;;;;;;;6.73;3.50;;;14.70;72.40;;;;;;5036980;28;20684;-81
2022/10/11 05:21:56;;;;;;;8.32;3.53;;;14.80;71.50;;;;;;5023714;28;20501;-80
2022/10/11 05:24:24;;;;;;;9.73;3.10;;;14.90;71.60;;;;;;5028169;28;20257;-80
2022/10/11 05:26:53;;;;;;;14.00;3.73;;;14.90;71.60;;;;;;5036389;28;20222;-81
2022/10/11 05:29:21;;;;;;;11.43;3.00;;;15.00;71.50;;;;;;5030673;28;20275;-78
2022/10/11 05:31:49;;;;;;;6.70;2.47;;;15.00;71.30;;;;;;5034520;28;20255;-81
2022/10/11 05:34:18;;;;;;;11.07;3.60;;;15.10;71.30;;;;;;5036147;28;20191;-82
2022/10/11 05:36:46;;;;;;;9.18;3.70;;;15.10;71.10;;;;;;5034542;28;20530;-83
2022/10/11 05:39:16;;;;;;;11.90;3.60;;;15.20;71.00;;;;;;5026265;28;20227;-83
2022/10/11 05:41:44;;;;;;;9.40;3.40;;;15.20;70.90;;;;;;5029238;28;20320;-81
2022/10/11 05:44:12;;;;;;;7.23;3.20;;;15.20;70.60;;;;;;5036682;28;20261;-80
2022/10/11 05:46:40;;;;;;;11.77;2.97;;;15.30;70.60;;;;;;5030370;28;20241;-81
2022/10/11 05:49:09;;;;;;;7.70;3.03;;;15.30;70.50;;;;;;5027990;28;20188;-81
2022/10/11 05:51:37;;;;;;;5.37;2.80;;;15.30;70.40;;;;;;5021629;28;20231;-79
2022/10/11 05:54:05;;;;;;;7.00;2.83;;;15.40;70.50;;;;;;5022989;28;20188;-79
2022/10/11 05:56:35;;;;;;;12.50;3.37;;;15.40;70.30;;;;;;5028691;28;20191;-81
2022/10/11 05:59:05;;;;;;;9.57;3.57;;;15.40;70.20;;;;;;5026339;28;20246;-81
2022/10/11 06:01:33;;;;;;;14.80;3.50;;;15.50;70.20;;;;;;5021723;28;20210;-81
2022/10/11 06:04:03;;;;;;;7.37;3.47;;;15.50;70.20;;;;;;5006511;28;20200;-79
2022/10/11 06:06:31;;;;;;;16.80;3.57;;;15.50;70.10;;;;;;5007759;28;20228;-80
2022/10/11 06:08:59;;;;;;;9.70;3.10;;;15.50;70.00;;;;;;5014423;28;20200;-83
2022/10/11 06:11:28;;;;;;;5.83;3.13;;;15.50;69.90;;;;;;5011003;28;20248;-81
2022/10/11 06:13:58;;;;;;;13.63;3.17;;;15.50;69.70;;;;;;5008189;28;20283;-81
2022/10/11 06:16:27;;;;;;;7.33;2.87;;;15.60;69.80;;;;;;5000731;28;20279;-85
2022/10/11 06:18:56;;;;;;;7.73;2.70;;;15.60;69.70;;;;;;5006128;28;20600;-81
2022/10/11 06:21:25;;;;;;;8.33;3.47;;;15.60;69.80;;;;;;5006018;28;20220;-82
2022/10/11 06:23:54;;;;;;;7.50;2.70;;;15.60;70.00;;;;;;5012629;28;20201;-82
2022/10/11 06:26:28;;;;;;;8.23;2.97;;;15.60;70.00;;;;;;5010259;28;20569;-85
2022/10/11 06:28:58;;;;;;;12.77;3.10;;;15.60;70.00;;;;;;5021052;28;20255;-81
2022/10/11 06:31:27;;;;;;;8.15;3.33;;;15.60;70.20;;;;;;5011511;28;20093;-81
2022/10/11 06:33:55;;;;;;;10.43;2.77;;;15.70;70.40;;;;;;5015582;28;20193;-80
2022/10/11 06:36:23;;;;;;;10.03;2.90;;;15.70;70.30;;;;;;5023246;28;20289;-80
2022/10/11 06:38:52;;;;;;;10.57;2.70;;;15.80;70.50;;;;;;5024986;28;20192;-83
2022/10/11 06:41:22;;;;;;;8.00;2.60;;;15.80;70.50;;;;;;5029105;28;20697;-82
2022/10/11 06:43:51;;;;;;;8.97;2.70;;;15.80;70.70;;;;;;5027135;28;20261;-81
2022/10/11 06:46:22;;;;;;;5.93;2.77;;;15.90;70.80;;;;;;5026320;28;20872;-81
2022/10/11 06:48:51;;;;;;;4.50;2.57;;;15.90;70.80;;;;;;5026333;28;20196;-79
2022/10/11 06:51:21;;;;;;;10.80;3.20;;;15.90;70.80;;;;;;5028604;28;20338;-80
2022/10/11 06:53:50;;;;;;;9.33;2.80;;;16.00;70.70;;;;;;5032869;28;20199;-82
2022/10/11 06:56:19;;;;;;;7.17;2.40;;;16.00;70.50;;;;;;5018722;28;20670;-86
2022/10/11 06:58:49;;;;;;;10.07;3.03;;;16.10;70.60;;;;;;5033453;28;20279;-80
2022/10/11 07:01:20;;;;;;;9.53;2.97;;;16.10;70.70;;;;;;5033626;28;20200;-84
2022/10/11 07:03:51;;;;;;;7.10;2.80;;;16.20;70.60;;;;;;5033305;28;20194;-82
2022/10/11 07:06:21;;;;;;;8.00;2.90;;;16.20;70.90;;;;;;5033571;28;20233;-83
2022/10/11 07:08:50;;;;;;;12.03;3.10;;;16.20;70.70;;;;;;5033490;28;20219;-81
2022/10/11 07:11:20;;;;;;;14.60;3.53;;;16.30;70.70;;;;;;5030240;28;20278;-82
2022/10/11 07:13:50;;;;;;;5.50;2.60;;;16.30;70.70;;;;;;5032763;28;20192;-83
2022/10/11 07:16:20;;;;;;;4.77;2.70;;;16.40;70.80;;;;;;5032338;28;20199;-81
2022/10/11 07:18:53;;;;;;;8.53;3.03;;;16.50;70.80;;;;;;5032792;28;20254;-82
2022/10/11 07:21:28;;;;;;;8.10;2.93;;;16.50;70.80;;;;;;5029867;28;20199;-84
2022/10/11 07:23:56;;;;;;;7.30;2.90;;;16.60;70.90;;;;;;5031350;28;20317;-79
2022/10/11 07:26:25;;;;;;;10.73;2.77;;;16.60;70.90;;;;;;5033530;28;20192;-80
2022/10/11 07:28:53;;;;;;;8.20;3.30;;;16.70;70.90;;;;;;5033945;28;20191;-82
2022/10/11 07:31:25;;;;;;;11.47;3.20;;;16.70;70.90;;;;;;5031341;28;20223;-84
2022/10/11 07:33:55;;;;;;;9.23;3.83;;;16.80;70.80;;;;;;5030049;28;20201;-82
2022/10/11 07:36:23;;;;;;;6.17;3.57;;;16.80;70.70;;;;;;5031831;28;20567;-81
2022/10/11 07:38:51;;;;;;;12.57;3.87;;;16.90;70.80;;;;;;5031877;28;20242;-82
2022/10/11 07:41:20;;;;;;;10.37;3.73;;;16.90;70.90;;;;;;5032091;28;20196;-80
2022/10/11 07:43:49;;;;;;;13.77;3.43;;;17.00;70.80;;;;;;5028940;28;20204;-78
2022/10/11 07:46:18;;;;;;;11.67;4.07;;;17.10;70.80;;;;;;5032868;28;20195;-80
2022/10/11 07:48:48;;;;;;;11.70;3.50;;;17.20;71.20;;;;;;5030588;28;20187;-76
2022/10/11 07:51:20;;;;;;;7.83;3.23;;;17.20;71.00;;;;;;5036039;28;20192;-80
2022/10/11 07:53:50;;;;;;;12.73;3.83;;;17.30;71.00;;;;;;5030279;28;20275;-78
2022/10/11 07:56:21;;;;;;;10.07;3.40;;;17.40;71.10;;;;;;5033499;28;20199;-81
2022/10/11 07:58:50;;;;;;;7.80;2.63;;;17.40;71.00;;;;;;5027932;28;20200;-82
2022/10/11 08:01:19;;;;;;;8.70;3.50;;;17.50;71.10;;;;;;5031620;28;20195;-82
2022/10/11 08:03:48;;;;;;;7.20;2.97;;;17.50;71.00;;;;;;5036117;28;20205;-77
2022/10/11 08:06:20;;;;;;;6.83;3.20;;;17.60;71.00;;;;;;5031288;28;20279;-80
2022/10/11 08:08:49;;;;;;;7.73;3.00;;;17.60;71.00;;;;;;5030857;28;20184;-84
2022/10/11 08:11:21;;;;;;;7.93;3.53;;;17.70;71.20;;;;;;5031241;28;20244;-84
2022/10/11 08:13:50;;;;;;;8.73;3.37;;;17.70;71.20;;;;;;5032775;28;20204;-82
2022/10/11 08:16:19;;;;;;;7.23;2.97;;;17.80;71.20;;;;;;5030412;28;20250;-78
2022/10/11 08:18:47;;;;;;;6.17;3.20;;;17.90;71.20;;;;;;5030291;28;20227;-79
2022/10/11 08:21:17;;;;;;;7.80;2.77;;;17.90;71.10;;;;;;5032587;28;20234;-78
2022/10/11 08:23:47;;;;;;;11.33;3.33;;;18.00;71.20;;;;;;5026558;28;20250;-77
2022/10/11 08:26:15;;;;;;;8.23;3.23;;;18.10;71.20;;;;;;5029802;28;20218;-78
2022/10/11 08:28:43;;;;;;;7.63;2.50;;;18.20;71.20;;;;;;5025758;28;20192;-77
2022/10/11 08:31:13;;;;;;;11.57;3.03;;;18.30;71.10;;;;;;5021624;28;20913;-80
2022/10/11 08:33:42;;;;;;;7.47;2.70;;;18.40;71.10;;;;;;5026174;28;20758;-78
2022/10/11 08:36:11;;;;;;;5.40;2.60;;;18.40;71.20;;;;;;5034039;28;20273;-76
2022/10/11 08:38:40;;;;;;;13.73;2.90;;;18.40;71.20;;;;;;5041457;28;20192;-77
2022/10/11 08:41:25;;;;;;;7.33;2.50;;;18.50;71.10;;;;;;5029922;28;20192;-77
2022/10/11 08:44:02;;;;;;;5.13;2.47;;;18.60;71.10;;;;;;5037057;28;20250;-78
2022/10/11 08:46:33;;;;;;;4.97;2.60;;;18.70;71.00;;;;;;5028623;28;20231;-77
2022/10/11 08:49:03;;;;;;;8.17;2.83;;;18.70;70.80;;;;;;5026031;28;20600;-78
2022/10/11 08:51:34;;;;;;;9.10;3.00;;;18.80;70.80;;;;;;5030182;28;20187;-75
2022/10/11 08:54:06;;;;;;;9.90;2.50;;;18.80;70.70;;;;;;5027340;28;20224;-78
2022/10/11 08:56:38;;;;;;;7.73;2.87;;;18.90;70.50;;;;;;5036211;28;20199;-75
2022/10/11 08:59:31;;;;;;;8.47;2.73;;;19.00;70.50;;;;;;5020969;28;20303;-79
2022/10/11 09:02:11;;;;;;;9.17;2.97;;;19.00;70.20;;;;;;5016674;28;20231;-78
2022/10/11 09:04:39;;;;;;;8.37;3.20;;;19.10;70.20;;;;;;5027232;28;20195;-78
2022/10/11 09:07:20;;;;;;;7.87;2.97;;;19.20;70.20;;;;;;5026509;28;20242;-81
2022/10/11 09:10:02;;;;;;;6.40;2.77;;;19.30;70.00;;;;;;5020752;28;20670;-79
2022/10/11 09:12:43;;;;;;;8.73;2.87;;;19.30;69.70;;;;;;5030714;28;21951;-78
2022/10/11 09:15:27;;;;;;;8.43;2.60;;;19.40;69.40;;;;;;5029453;28;20609;-78
2022/10/11 09:18:14;;;;;;;12.90;3.27;;;19.50;69.40;;;;;;5027639;28;20660;-78
2022/10/11 09:20:56;;;;;;;6.93;3.00;;;19.50;69.20;;;;;;5032835;28;20199;-77
2022/10/11 09:23:44;;;;;;;7.87;2.60;;;19.50;69.10;;;;;;5031443;28;20184;-77
2022/10/11 09:26:17;;;;;;;5.97;3.07;;;19.60;69.10;;;;;;5035516;28;20603;-81
2022/10/11 09:28:56;;;;;;;6.87;3.33;;;19.70;69.10;;;;;;5033470;28;20262;-79
2022/10/11 09:31:28;;;;;;;7.13;3.00;;;19.70;69.00;;;;;;5032152;28;20195;-78
2022/10/11 09:34:05;;;;;;;13.93;3.07;;;19.70;69.00;;;;;;5042088;28;20223;-76
2022/10/11 09:36:39;;;;;;;11.13;3.30;;;19.80;69.00;;;;;;5033294;28;20247;-79
2022/10/11 09:39:17;;;;;;;7.40;2.90;;;19.80;69.00;;;;;;5033372;28;20223;-79
2022/10/11 09:41:52;;;;;;;7.30;2.97;;;19.90;69.00;;;;;;5030374;28;20551;-79
2022/10/11 09:44:24;;;;;;;5.43;2.87;;;19.90;69.00;;;;;;5033682;28;20190;-77
2022/10/11 09:46:55;;;;;;;9.87;2.90;;;20.00;68.70;;;;;;5028701;28;20184;-77
2022/10/11 09:49:29;;;;;;;7.80;2.47;;;20.00;68.70;;;;;;5043642;28;20226;-78
2022/10/11 09:52:00;;;;;;;6.63;3.10;;;20.00;68.70;;;;;;5032820;28;20657;-79
2022/10/11 09:54:48;;;;;;;7.17;3.07;;;20.10;68.60;;;;;;5031464;28;20251;-81
2022/10/11 09:57:22;;;;;;;10.40;3.07;;;20.10;68.00;;;;;;5031461;28;20235;-82
2022/10/11 10:00:20;;;;;;;6.63;2.70;;;20.20;68.00;;;;;;5042198;28;20204;-83
2022/10/11 10:02:50;;;;;;;7.03;2.67;;;20.20;67.80;;;;;;5034541;28;20215;-85
2022/10/11 10:05:21;;;;;;;6.77;2.90;;;20.20;67.80;;;;;;5023745;28;20234;-86
2022/10/11 10:08:06;;;;;;;5.87;2.77;;;20.20;67.80;;;;;;5031747;28;20202;-82
2022/10/11 10:10:40;;;;;;;9.67;2.90;;;20.30;67.80;;;;;;5035641;28;20196;-85
2022/10/11 10:13:20;;;;;;;5.23;2.60;;;20.30;67.80;;;;;;5029169;28;20277;-84
2022/10/11 10:15:53;;;;;;;8.97;2.70;;;20.40;67.90;;;;;;5018492;28;20207;-85
2022/10/11 10:18:24;;;;;;;8.20;2.50;;;20.40;67.90;;;;;;5015612;28;20295;-82
2022/10/11 10:20:54;;;;;;;7.53;3.17;;;20.40;67.70;;;;;;5035525;28;20191;-86
2022/10/11 10:23:26;;;;;;;9.98;3.05;;;20.50;67.80;;;;;;5028561;28;20521;-82
2022/10/11 10:26:19;;;;;;;6.57;3.00;;;20.60;68.00;;;;;;5033205;28;20605;-81
2022/10/11 10:29:02;;;;;;;6.63;2.83;;;20.60;68.00;;;;;;5030634;28;20196;-80
2022/10/11 10:31:35;;;;;;;6.75;3.10;;;20.70;67.90;;;;;;5028740;28;20200;-81
2022/10/11 10:34:28;;;;;;;8.48;2.85;;;20.80;67.90;;;;;;5029587;28;20234;-80
2022/10/11 10:37:00;;;;;;;8.32;2.85;;;20.80;67.70;;;;;;5030607;28;20231;-80
2022/10/11 10:39:37;;;;;;;4.88;2.42;;;20.80;67.50;;;;;;5023651;28;20200;-80
2022/10/11 10:42:13;;;;;;;8.70;2.40;;;20.90;67.60;;;;;;5030405;28;20577;-78
2022/10/11 10:44:42;;;;;;;6.40;2.33;;;20.90;67.50;;;;;;5017688;28;20194;-80
2022/10/11 10:47:19;;;;;;;6.25;2.30;;;21.00;67.50;;;;;;5029811;28;20231;-80
2022/10/11 10:49:55;;;;;;;8.32;2.70;;;21.00;67.30;;;;;;5031698;28;20241;-86
2022/10/11 10:52:48;;;;;;;6.75;2.38;;;21.00;67.20;;;;;;5030654;28;20214;-86
2022/10/11 10:55:25;;;;;;;3.67;2.00;;;21.10;66.90;;;;;;5029965;28;20653;-84
2022/10/11 10:58:05;;;;;;;8.98;2.63;;;21.10;67.00;;;;;;5026525;28;20792;-84
2022/10/11 11:00:42;;;;;;;5.80;2.42;;;21.10;67.00;;;;;;5022045;28;20652;-84
2022/10/11 11:03:21;;;;;;;5.18;2.70;;;21.20;67.00;;;;;;5027774;28;20191;-82
2022/10/11 11:05:59;;;;;;;7.22;2.58;;;21.20;66.90;;;;;;5026725;28;20241;-83
2022/10/11 11:08:58;;;;;;;9.52;2.67;;;21.20;66.60;;;;;;5018407;28;20227;-83
2022/10/11 11:11:38;;;;;;;6.82;2.80;;;21.20;66.40;;;;;;5028306;28;20673;-82
2022/10/11 11:14:17;;;;;;;7.32;2.60;;;21.20;66.60;;;;;;5019776;28;20235;-81
2022/10/11 11:16:50;;;;;;;7.22;2.85;;;21.30;66.70;;;;;;5013119;28;20196;-85
2022/10/11 11:19:30;;;;;;;5.18;2.75;;;21.20;66.10;;;;;;5022252;28;20293;-81
2022/10/11 11:22:06;;;;;;;5.78;2.90;;;21.20;66.30;;;;;;5028129;28;20286;-85
2022/10/11 11:24:43;;;;;;;6.55;2.88;;;21.20;66.30;;;;;;5020889;28;20187;-83
2022/10/11 11:27:20;;;;;;;9.25;2.72;;;21.30;67.20;;;;;;5034615;28;20222;-84
2022/10/11 11:29:59;;;;;;;7.90;2.30;;;21.30;66.40;;;;;;5031064;28;20196;-82
2022/10/11 11:32:36;;;;;;;5.38;2.45;;;21.40;66.60;;;;;;5025671;28;20273;-83
2022/10/11 11:35:20;;;;;;;10.13;2.60;;;21.40;66.50;;;;;;5026393;28;20232;-84
2022/10/11 11:37:50;;;;;;;7.38;2.30;;;21.40;66.60;;;;;;5033114;28;20187;-86
2022/10/11 11:40:34;;;;;;;7.70;2.70;;;21.40;66.20;;;;;;5030803;28;20207;-82
2022/10/11 11:43:07;;;;;;;6.75;2.67;;;21.50;66.30;;;;;;5016643;28;20202;-81
2022/10/11 11:45:45;;;;;;;5.43;2.10;;;21.50;66.30;;;;;;5026116;28;20199;-84
2022/10/11 11:48:18;;;;;;;4.68;2.42;;;21.50;66.30;;;;;;5022227;28;20620;-84
2022/10/11 11:50:55;;;;;;;8.30;2.55;;;21.60;66.30;;;;;;5027408;28;20657;-84
2022/10/11 11:53:42;;;;;;;8.18;2.75;;;21.60;65.70;;;;;;5022663;28;20250;-81
2022/10/11 11:56:29;;;;;;;3.83;2.22;;;21.50;65.70;;;;;;5027075;28;20604;-83
2022/10/11 11:59:06;;;;;;;6.80;2.30;;;21.60;65.90;;;;;;5022134;28;20507;-82
2022/10/11 12:01:43;;;;;;;9.13;2.45;;;21.70;65.90;;;;;;5031642;28;20714;-81
2022/10/11 12:04:19;;;;;;;6.80;2.20;;;21.70;66.00;;;;;;5034220;28;20217;-78
2022/10/11 12:07:00;;;;;;;6.57;2.30;;;21.70;65.60;;;;;;5027090;28;20199;-78
2022/10/11 12:09:45;;;;;;;7.30;2.42;;;21.70;65.90;;;;;;5022029;28;20203;-78
2022/10/11 12:12:28;;;;;;;5.38;1.83;;;21.70;65.80;;;;;;5038005;28;20278;-79
2022/10/11 12:15:20;;;;;;;11.25;2.53;;;21.80;65.70;;;;;;5018179;28;20309;-79
2022/10/11 12:18:15;;;;;;;8.30;2.25;;;21.80;65.70;;;;;;5021095;28;20618;-79
2022/10/11 12:20:44;;;;;;;10.45;2.50;;;21.90;65.80;;;;;;5026023;28;20218;-78
2022/10/11 12:23:40;;;;;;;4.50;2.15;;;21.90;65.60;;;;;;5022871;28;20282;-80
2022/10/11 12:26:36;;;;;;;8.88;2.90;;;21.90;65.60;;;;;;5022735;28;20863;-80
2022/10/11 12:29:46;;;;;;;5.03;2.17;;;22.00;65.50;;;;;;5018270;28;20203;-78
2022/10/11 12:32:51;;;;;;;6.47;2.80;;;22.00;65.50;;;;;;5027757;28;20198;-78
2022/10/11 12:36:01;;;;;;;4.78;1.98;;;22.00;65.40;;;;;;5028825;28;20640;-78
2022/10/11 12:38:36;;;;;;;5.50;2.53;;;22.00;65.30;;;;;;5022091;28;20195;-77
2022/10/11 12:41:49;;;;;;;6.70;2.75;;;22.00;65.20;;;;;;5024838;28;20443;-78
2022/10/11 12:44:23;;;;;;;4.95;2.38;;;22.10;64.80;;;;;;5030295;28;20203;-80
2022/10/11 12:47:14;;;;;;;6.68;2.30;;;22.10;65.00;;;;;;5031469;28;20188;-80
2022/10/11 12:49:56;;;;;;;6.65;2.60;;;22.10;65.20;;;;;;5022213;28;20274;-80
2022/10/11 12:52:33;;;;;;;8.63;2.75;;;22.10;65.20;;;;;;5017832;28;20727;-80
2022/10/11 12:55:26;;;;;;;10.35;2.67;;;22.10;65.20;;;;;;5023427;28;20273;-80
2022/10/11 12:58:28;;;;;;;5.72;2.55;;;22.10;65.10;;;;;;5022742;28;20250;-80
2022/10/11 13:01:12;;;;;;;9.32;2.55;;;22.10;65.00;;;;;;5022119;28;20192;-80
2022/10/11 13:03:43;;;;;;;6.93;2.83;;;22.20;64.80;;;;;;5022940;28;20196;-80
2022/10/11 13:06:14;;;;;;;11.35;2.90;;;22.20;64.30;;;;;;5021928;28;20223;-79
2022/10/11 13:08:46;;;;;;;7.70;2.50;;;22.20;64.40;;;;;;5018190;28;20526;-79
2022/10/11 13:11:19;;;;;;;7.32;2.45;;;22.30;64.10;;;;;;5036606;28;20223;-78
2022/10/11 13:13:53;;;;;;;6.15;2.80;;;22.20;64.20;;;;;;5022701;28;20196;-77
2022/10/11 13:16:24;;;;;;;8.77;2.95;;;22.30;63.90;;;;;;5023365;28;20203;-79